Time;durP1;ratioP1;P1;durP2;ratioP2;P2;SDS_P1;SDS_P2;PMS_P1;PMS_P2;Temp;Humidity;BMP_temperature;BMP_pressure;BME280_temperature;BME280_humidity;BME280_pressure;Samples;Min_cycle;Max_cycle;Signal;HPM_P1;HPM_P2
2022/01/10 00:01:40;;;;;;;6.45;3.65;;;;;;;;;;4999431;28;20041;-78
2022/01/10 00:04:21;;;;;;;9.30;3.90;;;;;;;;;;5021295;28;20514;-78
2022/01/10 00:13:49;;;;;;;10.25;3.58;;;;;;;;;;4999331;28;20407;-79
2022/01/10 00:17:19;;;;;;;8.20;3.83;;;;;;;;;;5020888;28;20026;-78
2022/01/10 00:20:48;;;;;;;7.18;3.05;;;;;;;;;;4983455;28;20034;-79
2022/01/10 00:23:28;;;;;;;8.00;4.00;;;;;;;;;;4980512;28;20493;-78
2022/01/10 00:27:08;;;;;;;;;;;;;;;;;;;;;
2022/01/10 00:30:06;;;;;;;8.00;3.97;;;;;;;;;;4997659;28;20022;-78
2022/01/10 00:32:42;;;;;;;5.82;3.63;;;;;;;;;;4983263;28;20263;-78
2022/01/10 00:35:14;;;;;;;5.60;3.70;;;;;;;;;;5018219;28;20053;-79
2022/01/10 00:38:05;;;;;;;13.15;4.13;;;;;;;;;;5017302;28;20037;-77
2022/01/10 00:40:42;;;;;;;13.05;3.85;;;;;;;;;;5019283;28;20036;-79
2022/01/10 00:46:33;;;;;;;5.45;2.88;;;;;;;;;;5016137;28;20030;-78
2022/01/10 00:49:27;;;;;;;6.35;3.20;;;;;;;;;;5019299;28;20033;-77
2022/01/10 00:52:16;;;;;;;7.57;3.40;;;;;;;;;;5018441;28;20085;-79
2022/01/10 00:54:55;;;;;;;6.03;3.42;;;;;;;;;;5015641;28;20032;-78
2022/01/10 00:57:39;;;;;;;8.25;3.85;;;;;;;;;;5019206;28;20033;-78
2022/01/10 01:00:12;;;;;;;7.05;3.75;;;;;;;;;;5020675;28;20361;-79
2022/01/10 01:02:59;;;;;;;;;;;;;;;;;;;;;
2022/01/10 01:05:58;;;;;;;13.10;3.60;;;;;;;;;;5016855;28;20042;-78
2022/01/10 01:09:04;;;;;;;5.75;3.03;;;;;;;;;;5019430;28;20026;-77
2022/01/10 01:17:47;;;;;;;9.15;3.58;;;;;;;;;;5020314;28;20117;-79
2022/01/10 01:24:01;;;;;;;6.40;3.00;;;;;;;;;;5016420;28;20072;-78
2022/01/10 01:24:08;;;;;;;9.38;3.33;;;;;;;;;;5014034;28;20068;-77
2022/01/10 01:26:51;;;;;;;7.30;3.35;;;;;;;;;;5020053;28;20029;-80
2022/01/10 01:29:27;;;;;;;7.55;3.40;;;;;;;;;;5020785;28;20025;-80
2022/01/10 01:32:08;;;;;;;5.75;3.47;;;;;;;;;;5019169;28;20120;-80
2022/01/10 01:35:06;;;;;;;;;;;;;;;;;;;;;
2022/01/10 01:37:59;;;;;;;8.38;4.18;;;;;;;;;;5020988;28;20482;-79
2022/01/10 01:44:49;;;;;;;;;;;;;;;;;;;;;
2022/01/10 01:47:43;;;;;;;6.88;3.38;;;;;;;;;;5019286;28;20450;-80
2022/01/10 01:50:37;;;;;;;8.33;3.97;;;;;;;;;;5019083;28;20029;-79
2022/01/10 01:53:36;;;;;;;7.00;3.45;;;;;;;;;;5019992;28;20034;-79
2022/01/10 01:56:15;;;;;;;10.00;3.38;;;;;;;;;;5021715;28;20058;-78
2022/01/10 01:58:55;;;;;;;;;;;;;;;;;;;;;
2022/01/10 02:01:36;;;;;;;5.95;3.05;;;;;;;;;;5018805;28;20028;-79
2022/01/10 02:04:03;;;;;;;9.20;3.92;;;;;;;;;;5018675;28;20025;-78
2022/01/10 02:06:51;;;;;;;7.53;3.63;;;;;;;;;;5016645;28;20037;-78
2022/01/10 02:09:35;;;;;;;7.22;3.78;;;;;;;;;;5018346;28;20079;-79
2022/01/10 02:12:12;;;;;;;7.70;3.08;;;;;;;;;;5018315;28;20026;-79
2022/01/10 02:14:57;;;;;;;7.03;3.80;;;;;;;;;;5018363;28;20025;-79
2022/01/10 02:17:58;;;;;;;;;;;;;;;;;;;;;
2022/01/10 02:21:11;;;;;;;;;;;;;;;;;;;;;
2022/01/10 02:23:48;;;;;;;7.75;3.40;;;;;;;;;;5018311;28;20028;-79
2022/01/10 02:26:22;;;;;;;6.82;3.25;;;;;;;;;;5018890;28;20033;-78
2022/01/10 02:28:48;;;;;;;;;;;;;;;;;;5018716;28;20026;-77
2022/01/10 02:31:43;;;;;;;10.48;3.42;;;;;;;;;;5017490;28;19917;-78
2022/01/10 02:34:28;;;;;;;8.05;3.63;;;;;;;;;;5016688;28;20029;-80
2022/01/10 02:37:00;;;;;;;6.00;3.22;;;;;;;;;;5017068;28;20022;-78
2022/01/10 02:39:36;;;;;;;9.15;3.75;;;;;;;;;;5017839;28;20072;-79
2022/01/10 02:42:32;;;;;;;10.20;3.58;;;;;;;;;;5018395;28;20467;-78
2022/01/10 02:45:03;;;;;;;7.47;3.95;;;;;;;;;;5016929;28;20472;-79
2022/01/10 02:47:31;;;;;;;11.10;3.95;;;;;;;;;;5017338;28;20025;-78
2022/01/10 02:49:59;;;;;;;7.65;3.40;;;;;;;;;;5017770;28;20028;-79
2022/01/10 02:52:54;;;;;;;7.90;3.60;;;;;;;;;;5016565;28;20048;-79
2022/01/10 02:55:32;;;;;;;;;;;;;;;;;;5017646;28;20416;-80
2022/01/10 02:58:00;;;;;;;10.05;3.47;;;;;;;;;;5048412;28;19909;-80
2022/01/10 03:00:56;;;;;;;6.75;3.30;;;;;;;;;;5017724;28;20022;-79
2022/01/10 03:03:43;;;;;;;;;;;;;;;;;;;;;
2022/01/10 03:06:19;;;;;;;6.82;3.08;;;;;;;;;;5019278;28;20112;-79
2022/01/10 03:09:03;;;;;;;12.82;3.70;;;;;;;;;;5018828;28;20105;-79
2022/01/10 03:11:41;;;;;;;7.85;3.90;;;;;;;;;;5016969;28;20061;-80
2022/01/10 03:14:06;;;;;;;10.10;3.88;;;;;;;;;;5017510;28;20101;-78
2022/01/10 03:16:58;;;;;;;10.63;4.15;;;;;;;;;;5016230;28;20053;-81
2022/01/10 03:19:23;;;;;;;8.35;4.00;;;;;;;;;;5006542;28;20088;-79
2022/01/10 03:21:48;;;;;;;7.35;3.92;;;;;;;;;;5016754;28;20022;-80
2022/01/10 03:24:14;;;;;;;12.02;3.72;;;;;;;;;;5018023;28;20034;-77
2022/01/10 03:26:41;;;;;;;10.55;3.97;;;;;;;;;;5017789;28;20076;-79
2022/01/10 03:29:07;;;;;;;8.40;3.75;;;;;;;;;;5017873;28;20022;-77
2022/01/10 03:31:34;;;;;;;6.78;3.25;;;;;;;;;;5017687;28;20380;-79
2022/01/10 03:34:12;;;;;;;9.13;4.15;;;;;;;;;;5017506;28;20029;-79
2022/01/10 03:36:44;;;;;;;7.28;3.63;;;;;;;;;;5016917;28;20033;-78
2022/01/10 03:39:13;;;;;;;12.80;3.67;;;;;;;;;;5018573;28;20036;-79
2022/01/10 03:41:39;;;;;;;8.95;3.70;;;;;;;;;;5018299;28;20077;-79
2022/01/10 03:44:05;;;;;;;11.27;4.05;;;;;;;;;;5017527;28;20116;-80
2022/01/10 03:46:34;;;;;;;8.55;3.97;;;;;;;;;;5016683;28;20064;-79
2022/01/10 03:49:00;;;;;;;7.43;3.78;;;;;;;;;;5018160;28;20030;-78
2022/01/10 03:51:26;;;;;;;8.65;3.85;;;;;;;;;;5016796;28;20061;-78
2022/01/10 03:53:52;;;;;;;7.63;3.88;;;;;;;;;;5018326;28;20051;-77
2022/01/10 03:56:18;;;;;;;11.68;3.72;;;;;;;;;;5017833;28;20487;-77
2022/01/10 03:58:43;;;;;;;9.95;3.67;;;;;;;;;;5016794;28;20026;-80
2022/01/10 04:01:09;;;;;;;7.35;3.80;;;;;;;;;;5017595;28;20500;-78
2022/01/10 04:03:37;;;;;;;11.13;3.83;;;;;;;;;;5016079;28;20017;-78
2022/01/10 04:06:02;;;;;;;13.45;3.80;;;;;;;;;;5015796;28;20030;-79
2022/01/10 04:08:27;;;;;;;7.95;4.13;;;;;;;;;;5017773;28;20510;-79
2022/01/10 04:10:54;;;;;;;9.50;3.67;;;;;;;;;;5017747;28;20064;-79
2022/01/10 04:13:19;;;;;;;7.75;3.90;;;;;;;;;;5016306;28;20026;-78
2022/01/10 04:15:45;;;;;;;10.32;3.83;;;;;;;;;;5017674;28;20072;-79
2022/01/10 04:18:10;;;;;;;10.55;4.00;;;;;;;;;;5017546;28;20026;-79
2022/01/10 04:20:35;;;;;;;10.60;4.05;;;;;;;;;;5018349;28;20416;-79
2022/01/10 04:23:01;;;;;;;6.80;3.42;;;;;;;;;;5015734;28;20576;-79
2022/01/10 04:25:26;;;;;;;7.97;3.90;;;;;;;;;;5017335;28;20030;-79
2022/01/10 04:27:52;;;;;;;9.18;4.63;;;;;;;;;;5017882;28;20029;-78
2022/01/10 04:30:17;;;;;;;6.63;3.88;;;;;;;;;;5015858;28;20022;-78
2022/01/10 04:32:44;;;;;;;8.85;3.60;;;;;;;;;;5017202;28;20053;-79
2022/01/10 04:35:09;;;;;;;8.65;3.75;;;;;;;;;;5016320;28;20026;-80
2022/01/10 04:37:35;;;;;;;9.98;3.80;;;;;;;;;;5015791;28;20037;-79
2022/01/10 04:40:00;;;;;;;13.20;4.00;;;;;;;;;;5015643;28;20109;-77
2022/01/10 04:42:25;;;;;;;8.02;4.50;;;;;;;;;;5014691;28;20079;-79
2022/01/10 04:44:51;;;;;;;10.80;4.30;;;;;;;;;;5016912;28;20026;-79
2022/01/10 04:47:16;;;;;;;9.23;4.18;;;;;;;;;;5019241;28;20029;-77
2022/01/10 04:50:12;;;;;;;11.80;3.65;;;;;;;;;;5018333;28;20061;-79
2022/01/10 04:52:37;;;;;;;9.65;4.32;;;;;;;;;;5019180;28;20054;-79
2022/01/10 04:55:04;;;;;;;12.98;4.20;;;;;;;;;;5019862;28;20029;-78
2022/01/10 04:57:29;;;;;;;10.02;3.65;;;;;;;;;;5019138;28;20057;-78
2022/01/10 04:59:54;;;;;;;8.48;4.10;;;;;;;;;;5019525;28;20080;-80
2022/01/10 05:02:19;;;;;;;9.02;4.10;;;;;;;;;;5019402;28;20029;-78
2022/01/10 05:04:45;;;;;;;8.13;3.72;;;;;;;;;;5018781;28;20479;-78
2022/01/10 05:07:10;;;;;;;6.93;4.18;;;;;;;;;;5018852;28;20440;-78
2022/01/10 05:09:35;;;;;;;9.75;4.55;;;;;;;;;;5018731;28;20033;-79
2022/01/10 05:12:01;;;;;;;8.80;4.32;;;;;;;;;;5019139;28;20113;-79
2022/01/10 05:14:26;;;;;;;10.95;4.32;;;;;;;;;;5019169;28;20026;-79
2022/01/10 05:16:52;;;;;;;10.98;3.80;;;;;;;;;;5019764;28;20112;-79
2022/01/10 05:19:17;;;;;;;9.95;3.95;;;;;;;;;;5019411;28;20087;-78
2022/01/10 05:21:42;;;;;;;10.93;4.55;;;;;;;;;;5019789;28;20022;-80
2022/01/10 05:24:08;;;;;;;6.32;4.10;;;;;;;;;;5019401;28;20081;-80
2022/01/10 05:26:34;;;;;;;9.70;4.40;;;;;;;;;;5018971;28;20403;-79
2022/01/10 05:29:01;;;;;;;10.52;3.95;;;;;;;;;;5018119;28;20113;-80
2022/01/10 05:31:26;;;;;;;7.22;4.22;;;;;;;;;;5019137;28;20485;-78
2022/01/10 05:33:52;;;;;;;7.55;4.20;;;;;;;;;;5018079;28;20053;-78
2022/01/10 05:36:17;;;;;;;10.85;5.22;;;;;;;;;;5019240;28;20030;-79
2022/01/10 05:38:42;;;;;;;12.00;4.72;;;;;;;;;;5018931;28;20423;-79
2022/01/10 05:41:08;;;;;;;11.32;4.88;;;;;;;;;;5019303;28;20018;-79
2022/01/10 05:43:33;;;;;;;11.20;4.55;;;;;;;;;;5018876;28;20044;-79
2022/01/10 05:45:59;;;;;;;9.23;5.15;;;;;;;;;;5017474;28;20028;-79
2022/01/10 05:48:26;;;;;;;11.80;5.15;;;;;;;;;;5018753;28;20026;-78
2022/01/10 05:50:52;;;;;;;11.02;5.63;;;;;;;;;;5016922;28;20038;-78
2022/01/10 05:53:19;;;;;;;10.27;5.00;;;;;;;;;;5018656;28;20368;-78
2022/01/10 05:55:44;;;;;;;14.88;5.30;;;;;;;;;;5018263;28;20056;-78
2022/01/10 05:58:09;;;;;;;9.82;5.35;;;;;;;;;;5018018;28;20411;-79
2022/01/10 06:00:35;;;;;;;11.27;5.63;;;;;;;;;;5016688;28;20084;-79
2022/01/10 06:03:02;;;;;;;12.27;5.70;;;;;;;;;;5017045;28;20022;-79
2022/01/10 06:05:31;;;;;;;14.18;5.93;;;;;;;;;;5019608;28;20057;-79
2022/01/10 06:08:00;;;;;;;12.00;6.13;;;;;;;;;;5020290;28;20061;-79
2022/01/10 06:10:26;;;;;;;11.55;6.30;;;;;;;;;;5018769;28;20030;-79
2022/01/10 06:12:52;;;;;;;12.77;5.05;;;;;;;;;;5017558;28;20030;-80
2022/01/10 06:15:17;;;;;;;16.60;5.22;;;;;;;;;;5018082;28;20389;-78
2022/01/10 06:17:42;;;;;;;12.07;5.57;;;;;;;;;;5018036;28;20030;-79
2022/01/10 06:20:08;;;;;;;12.18;5.40;;;;;;;;;;5017573;28;20046;-78
2022/01/10 06:22:34;;;;;;;9.43;5.50;;;;;;;;;;5018029;28;20032;-79
2022/01/10 06:24:59;;;;;;;14.02;5.65;;;;;;;;;;5017898;28;20510;-79
2022/01/10 06:27:25;;;;;;;9.15;5.55;;;;;;;;;;5016166;28;20026;-79
2022/01/10 06:29:50;;;;;;;11.27;5.28;;;;;;;;;;5018309;28;20029;-79
2022/01/10 06:32:15;;;;;;;12.40;5.40;;;;;;;;;;5016780;28;20025;-79
2022/01/10 06:34:41;;;;;;;10.73;5.40;;;;;;;;;;5017381;28;20471;-79
2022/01/10 06:37:06;;;;;;;12.95;5.70;;;;;;;;;;5017360;28;20030;-79
2022/01/10 06:39:32;;;;;;;11.38;5.75;;;;;;;;;;5017701;28;20061;-79
2022/01/10 06:41:57;;;;;;;12.52;5.15;;;;;;;;;;5017128;28;20391;-78
2022/01/10 06:44:25;;;;;;;12.30;5.63;;;;;;;;;;5016817;28;20018;-79
2022/01/10 06:46:51;;;;;;;13.55;5.30;;;;;;;;;;5016780;28;20026;-79
2022/01/10 06:49:16;;;;;;;17.50;5.47;;;;;;;;;;5017852;28;20082;-79
2022/01/10 06:51:41;;;;;;;16.33;5.68;;;;;;;;;;5017218;28;20494;-79
2022/01/10 06:54:07;;;;;;;12.82;5.93;;;;;;;;;;5015929;28;20117;-79
2022/01/10 06:56:32;;;;;;;8.10;5.07;;;;;;;;;;5015510;28;20075;-80
2022/01/10 06:58:57;;;;;;;12.55;5.68;;;;;;;;;;5016554;28;20113;-79
2022/01/10 07:01:23;;;;;;;15.82;6.85;;;;;;;;;;5014853;28;20021;-78
2022/01/10 07:03:48;;;;;;;13.25;5.70;;;;;;;;;;5016818;28;20032;-79
2022/01/10 07:06:13;;;;;;;13.95;5.70;;;;;;;;;;5017870;28;20022;-80
2022/01/10 07:08:38;;;;;;;14.43;6.43;;;;;;;;;;5016200;28;20030;-78
2022/01/10 07:11:04;;;;;;;11.55;5.85;;;;;;;;;;5016619;28;20042;-78
2022/01/10 07:13:29;;;;;;;14.77;6.63;;;;;;;;;;5017359;28;20022;-78
2022/01/10 07:15:54;;;;;;;15.00;6.93;;;;;;;;;;5015505;28;20026;-78
2022/01/10 07:18:19;;;;;;;15.02;7.00;;;;;;;;;;5016858;28;20045;-79
2022/01/10 07:20:45;;;;;;;11.35;6.80;;;;;;;;;;5016722;28;20034;-78
2022/01/10 07:23:10;;;;;;;13.57;7.05;;;;;;;;;;5017520;28;20033;-77
2022/01/10 07:25:38;;;;;;;16.45;7.32;;;;;;;;;;5018610;28;20053;-79
2022/01/10 07:28:03;;;;;;;20.65;7.68;;;;;;;;;;5017169;28;20076;-77
2022/01/10 07:30:28;;;;;;;12.75;6.72;;;;;;;;;;5016776;28;20038;-79
2022/01/10 07:32:56;;;;;;;12.65;6.35;;;;;;;;;;5018669;28;20052;-79
2022/01/10 07:35:21;;;;;;;15.65;7.32;;;;;;;;;;5018307;28;20025;-78
2022/01/10 07:37:46;;;;;;;15.20;6.93;;;;;;;;;;5018293;28;20121;-79
2022/01/10 07:40:12;;;;;;;19.30;7.68;;;;;;;;;;5017887;28;20029;-80
2022/01/10 07:42:38;;;;;;;16.20;7.18;;;;;;;;;;5018539;28;20499;-79
2022/01/10 07:45:04;;;;;;;14.30;7.50;;;;;;;;;;5016377;28;20112;-78
2022/01/10 07:47:30;;;;;;;20.00;7.82;;;;;;;;;;5016790;28;20033;-77
2022/01/10 07:49:55;;;;;;;15.02;7.25;;;;;;;;;;5017810;28;20026;-80
2022/01/10 07:52:22;;;;;;;20.45;6.95;;;;;;;;;;5016270;28;20094;-79
2022/01/10 07:54:47;;;;;;;21.30;7.30;;;;;;;;;;5017080;28;20034;-77
2022/01/10 07:57:12;;;;;;;16.90;7.47;;;;;;;;;;5018103;28;20030;-77
2022/01/10 07:59:38;;;;;;;17.42;7.70;;;;;;;;;;5017434;28;20036;-79
2022/01/10 08:02:03;;;;;;;18.15;7.80;;;;;;;;;;5018112;28;20026;-79
2022/01/10 08:04:28;;;;;;;18.60;7.82;;;;;;;;;;5018528;28;20029;-79
2022/01/10 08:06:54;;;;;;;24.38;8.30;;;;;;;;;;5017234;28;20056;-79
2022/01/10 08:09:19;;;;;;;15.38;7.50;;;;;;;;;;5016991;28;20030;-77
2022/01/10 08:11:44;;;;;;;15.65;7.22;;;;;;;;;;5016260;28;20454;-80
2022/01/10 08:14:10;;;;;;;15.48;7.65;;;;;;;;;;5017387;28;20109;-78
2022/01/10 08:16:35;;;;;;;19.63;7.90;;;;;;;;;;5015667;28;20022;-78
2022/01/10 08:19:00;;;;;;;19.25;7.57;;;;;;;;;;5016374;28;20022;-78
2022/01/10 08:21:29;;;;;;;16.73;7.85;;;;;;;;;;5019842;28;20026;-78
2022/01/10 08:23:54;;;;;;;17.45;7.95;;;;;;;;;;5019408;28;20033;-79
2022/01/10 08:26:20;;;;;;;21.55;8.05;;;;;;;;;;5018919;28;20475;-77
2022/01/10 08:28:45;;;;;;;17.83;9.27;;;;;;;;;;5019678;28;20105;-77
2022/01/10 08:31:11;;;;;;;17.58;8.27;;;;;;;;;;5019773;28;20456;-79
2022/01/10 08:33:36;;;;;;;21.65;8.38;;;;;;;;;;5019360;28;20029;-79
2022/01/10 08:36:02;;;;;;;19.77;8.32;;;;;;;;;;5019833;28;20164;-78
2022/01/10 08:38:27;;;;;;;20.27;7.88;;;;;;;;;;5020059;28;20037;-77
2022/01/10 08:40:53;;;;;;;20.23;8.60;;;;;;;;;;5020112;28;20041;-78
2022/01/10 08:43:18;;;;;;;18.60;7.80;;;;;;;;;;5019574;28;20030;-79
2022/01/10 08:45:44;;;;;;;18.20;8.18;;;;;;;;;;5019859;28;20022;-77
2022/01/10 08:48:10;;;;;;;21.77;8.02;;;;;;;;;;5017546;28;20041;-77
2022/01/10 08:50:36;;;;;;;21.90;8.73;;;;;;;;;;5018341;28;20037;-77
2022/01/10 08:53:08;;;;;;;18.90;7.75;;;;;;;;;;5019011;28;20029;-79
2022/01/10 08:55:33;;;;;;;17.92;7.93;;;;;;;;;;5016881;28;20117;-78
2022/01/10 08:57:59;;;;;;;22.00;6.70;;;;;;;;;;5019631;28;20053;-78
2022/01/10 09:00:25;;;;;;;17.30;8.27;;;;;;;;;;5018293;28;20395;-78
2022/01/10 09:02:50;;;;;;;20.30;8.43;;;;;;;;;;5017624;28;20026;-79
2022/01/10 09:05:15;;;;;;;23.05;8.23;;;;;;;;;;5018269;28;20120;-79
2022/01/10 09:07:41;;;;;;;26.85;9.20;;;;;;;;;;5018498;28;20049;-79
2022/01/10 09:10:06;;;;;;;22.58;8.77;;;;;;;;;;5019615;28;20033;-78
2022/01/10 09:12:31;;;;;;;18.88;8.32;;;;;;;;;;5019155;28;20025;-78
2022/01/10 09:14:57;;;;;;;22.35;8.98;;;;;;;;;;5018811;28;20029;-79
2022/01/10 09:17:23;;;;;;;23.88;8.27;;;;;;;;;;5018330;28;20029;-79
2022/01/10 09:19:48;;;;;;;30.42;10.10;;;;;;;;;;5019304;28;20030;-78
2022/01/10 09:22:14;;;;;;;23.50;8.30;;;;;;;;;;5019046;28;20026;-79
2022/01/10 09:24:39;;;;;;;24.73;8.77;;;;;;;;;;5020879;28;20057;-79
2022/01/10 09:27:05;;;;;;;19.30;8.35;;;;;;;;;;5019742;28;20072;-80
2022/01/10 09:29:30;;;;;;;28.58;8.77;;;;;;;;;;5020483;28;20034;-79
2022/01/10 09:31:55;;;;;;;23.75;9.00;;;;;;;;;;5016400;28;20463;-78
2022/01/10 09:34:23;;;;;;;29.33;9.45;;;;;;;;;;5017315;28;20056;-78
2022/01/10 09:36:48;;;;;;;23.10;9.15;;;;;;;;;;5017215;28;20546;-78
2022/01/10 09:39:14;;;;;;;24.42;9.25;;;;;;;;;;5017653;28;20034;-79
2022/01/10 09:41:40;;;;;;;23.40;9.35;;;;;;;;;;5016786;28;20034;-78
2022/01/10 09:44:08;;;;;;;24.75;9.10;;;;;;;;;;5015836;28;20125;-78
2022/01/10 09:46:34;;;;;;;24.20;8.82;;;;;;;;;;5017106;28;20573;-78
2022/01/10 09:49:04;;;;;;;22.85;8.90;;;;;;;;;;5018084;28;20034;-79
2022/01/10 09:51:30;;;;;;;18.15;8.77;;;;;;;;;;5018358;28;20104;-78
2022/01/10 09:53:56;;;;;;;25.20;9.13;;;;;;;;;;5017746;28;20030;-78
2022/01/10 09:56:22;;;;;;;27.30;10.15;;;;;;;;;;5017180;28;20029;-78
2022/01/10 09:58:48;;;;;;;22.50;9.38;;;;;;;;;;5016890;28;20068;-79
2022/01/10 10:01:16;;;;;;;18.13;8.13;;;;;;;;;;5017460;28;20026;-80
2022/01/10 10:03:47;;;;;;;22.00;8.43;;;;;;;;;;5018150;28;20022;-78
2022/01/10 10:06:13;;;;;;;18.80;8.23;;;;;;;;;;5017636;28;20030;-79
2022/01/10 10:08:39;;;;;;;24.85;8.80;;;;;;;;;;5000091;28;20112;-80
2022/01/10 10:11:08;;;;;;;21.15;8.75;;;;;;;;;;5017538;28;20033;-79
2022/01/10 10:13:53;;;;;;;22.83;8.48;;;;;;;;;;5016712;28;20022;-78
2022/01/10 10:16:20;;;;;;;21.70;9.32;;;;;;;;;;5016180;28;20045;-78
2022/01/10 10:18:47;;;;;;;27.30;10.00;;;;;;;;;;5014980;28;20047;-79
2022/01/10 10:21:18;;;;;;;34.15;10.55;;;;;;;;;;5015838;28;20026;-78
2022/01/10 10:23:48;;;;;;;17.30;7.90;;;;;;;;;;5015554;28;20030;-78
2022/01/10 10:26:19;;;;;;;29.38;10.48;;;;;;;;;;5017246;28;20115;-78
2022/01/10 10:28:45;;;;;;;30.13;10.23;;;;;;;;;;5017448;28;20122;-78
2022/01/10 10:31:12;;;;;;;26.50;10.13;;;;;;;;;;5015138;28;20030;-78
2022/01/10 10:33:46;;;;;;;21.20;9.27;;;;;;;;;;5016028;28;20105;-78
2022/01/10 10:36:11;;;;;;;27.33;10.07;;;;;;;;;;5016251;28;20040;-78
2022/01/10 10:38:37;;;;;;;25.50;9.40;;;;;;;;;;5014806;28;20089;-79
2022/01/10 10:41:04;;;;;;;25.90;10.68;;;;;;;;;;5014280;28;20029;-78
2022/01/10 10:43:37;;;;;;;26.15;8.73;;;;;;;;;;5014911;28;20026;-78
2022/01/10 10:46:04;;;;;;;29.40;9.63;;;;;;;;;;5014616;28;20037;-79
2022/01/10 10:48:34;;;;;;;24.58;9.32;;;;;;;;;;5015375;28;20452;-78
2022/01/10 10:51:01;;;;;;;24.45;8.73;;;;;;;;;;5016686;28;20029;-78
2022/01/10 10:53:27;;;;;;;24.58;9.57;;;;;;;;;;5015992;28;20014;-78
2022/01/10 10:55:57;;;;;;;24.27;9.75;;;;;;;;;;5014613;28;20040;-78
2022/01/10 10:58:22;;;;;;;26.55;9.23;;;;;;;;;;5014852;28;20037;-78
2022/01/10 11:00:48;;;;;;;20.85;9.05;;;;;;;;;;5021764;28;20029;-78
2022/01/10 11:03:15;;;;;;;29.15;8.93;;;;;;;;;;5020001;28;20036;-78
2022/01/10 11:05:42;;;;;;;15.50;7.05;;;;;;;;;;5014934;28;20026;-77
2022/01/10 11:08:07;;;;;;;24.70;8.07;;;;;;;;;;5015804;28;20076;-78
2022/01/10 11:10:33;;;;;;;17.08;6.88;;;;;;;;;;5015712;28;20029;-79
2022/01/10 11:13:00;;;;;;;25.30;8.18;;;;;;;;;;5016522;28;20336;-76
2022/01/10 11:15:26;;;;;;;18.17;7.65;;;;;;;;;;5022618;28;20025;-77
2022/01/10 11:18:03;;;;;;;17.00;6.75;;;;;;;;;;5023286;28;20033;-78
2022/01/10 11:20:39;;;;;;;22.25;7.47;;;;;;;;;;5017911;28;20033;-77
2022/01/10 11:23:04;;;;;;;22.77;6.97;;;;;;;;;;5015238;28;20026;-77
2022/01/10 11:25:33;;;;;;;21.02;7.05;;;;;;;;;;5016048;28;20072;-78
2022/01/10 11:28:05;;;;;;;20.92;7.00;;;;;;;;;;5018989;28;20029;-78
2022/01/10 11:30:45;;;;;;;22.48;7.70;;;;;;;;;;5021525;28;20069;-80
2022/01/10 11:33:16;;;;;;;15.55;6.90;;;;;;;;;;5015915;28;20025;-78
2022/01/10 11:35:44;;;;;;;19.70;6.90;;;;;;;;;;5014837;28;20029;-78
2022/01/10 11:38:29;;;;;;;25.95;6.25;;;;;;;;;;5018644;28;20021;-78
2022/01/10 11:41:17;;;;;;;21.15;6.85;;;;;;;;;;5022484;28;20026;-79
2022/01/10 11:43:57;;;;;;;16.10;5.95;;;;;;;;;;5016131;28;20045;-78
2022/01/10 11:46:26;;;;;;;15.10;5.30;;;;;;;;;;5014252;28;20478;-78
2022/01/10 11:49:18;;;;;;;13.73;5.63;;;;;;;;;;5014331;28;20088;-77
2022/01/10 11:51:50;;;;;;;19.48;6.10;;;;;;;;;;5015866;28;20053;-78
2022/01/10 11:54:23;;;;;;;14.30;5.55;;;;;;;;;;5021570;28;20030;-79
2022/01/10 11:56:52;;;;;;;10.88;5.32;;;;;;;;;;5022128;28;20029;-78
2022/01/10 11:59:22;;;;;;;13.75;5.22;;;;;;;;;;5016787;28;20029;-78
2022/01/10 12:02:04;;;;;;;14.68;5.63;;;;;;;;;;5016533;28;20060;-78
2022/01/10 12:04:38;;;;;;;15.85;5.32;;;;;;;;;;5019432;28;20033;-78
2022/01/10 12:07:06;;;;;;;16.15;5.05;;;;;;;;;;5022748;28;20026;-79
2022/01/10 12:09:31;;;;;;;13.75;5.40;;;;;;;;;;5022190;28;20439;-78
2022/01/10 12:11:58;;;;;;;15.75;4.32;;;;;;;;;;5015451;28;20030;-78
2022/01/10 12:14:24;;;;;;;12.00;5.03;;;;;;;;;;5016420;28;20080;-78
2022/01/10 12:16:51;;;;;;;10.80;5.05;;;;;;;;;;5018318;28;20037;-77
2022/01/10 12:19:17;;;;;;;11.32;4.70;;;;;;;;;;5017667;28;20475;-78
2022/01/10 12:21:42;;;;;;;15.60;5.15;;;;;;;;;;5017893;28;20108;-78
2022/01/10 12:24:12;;;;;;;13.05;4.72;;;;;;;;;;5017178;28;20029;-78
2022/01/10 12:26:38;;;;;;;13.32;5.60;;;;;;;;;;5016098;28;20044;-78
2022/01/10 12:29:05;;;;;;;13.32;4.22;;;;;;;;;;5015243;28;20030;-78
2022/01/10 12:31:31;;;;;;;14.25;4.57;;;;;;;;;;5015578;28;20029;-78
2022/01/10 12:33:58;;;;;;;10.93;4.88;;;;;;;;;;5016408;28;20395;-78
2022/01/10 12:36:25;;;;;;;12.85;4.65;;;;;;;;;;5016293;28;20088;-78
2022/01/10 12:38:54;;;;;;;14.57;5.18;;;;;;;;;;5016869;28;20467;-78
2022/01/10 12:41:20;;;;;;;12.77;4.60;;;;;;;;;;5017191;28;20034;-78
2022/01/10 12:43:48;;;;;;;17.42;4.80;;;;;;;;;;5021650;28;20025;-78
2022/01/10 12:46:15;;;;;;;13.00;4.80;;;;;;;;;;5020220;28;20037;-78
2022/01/10 12:48:43;;;;;;;7.55;4.05;;;;;;;;;;5015880;28;20052;-79
2022/01/10 12:51:08;;;;;;;13.05;4.40;;;;;;;;;;5015733;28;20134;-78
2022/01/10 12:53:34;;;;;;;13.77;4.60;;;;;;;;;;5018111;28;20041;-78
2022/01/10 12:59:50;;;;;;;25.30;8.10;;;;;;;;;;3363672;26;20057;-78
2022/01/10 13:03:09;;;;;;;;;;;;;;;;;;;;;
2022/01/10 13:06:13;;;;;;;19.35;5.35;;;;;;;;;;5064070;28;20459;-78
2022/01/10 13:09:13;;;;;;;10.73;3.90;;;;;;;;;;5035385;28;20090;-78
2022/01/10 13:13:30;;;;;;;;;;;;;;;;;;;;;
2022/01/10 13:16:08;;;;;;;;;;;;;;;;;;;;;
2022/01/10 13:26:27;;;;;;;13.75;4.20;;;;;;;;;;5006451;28;20096;-78
2022/01/10 13:29:34;;;;;;;13.52;3.88;;;;;;;;;;5059492;28;20171;-79
2022/01/10 13:36:42;;;;;;;;;;;;;;;;;;;;;
2022/01/10 13:43:40;;;;;;;11.30;4.13;;;;;;;;;;4951973;28;20031;-80
2022/01/10 13:47:06;;;;;;;;;;;;;;;;;;;;;
2022/01/10 13:51:16;;;;;;;15.93;4.35;;;;;;;;;;5059324;28;20096;-78
2022/01/10 14:07:53;;;;;;;10.88;4.43;;;;;;;;;;4846613;29;20053;-77
2022/01/10 14:11:08;;;;;;;;;;;;;;;;;;;;;
2022/01/10 14:27:42;;;;;;;13.98;4.65;;;;;;;;;;4862156;29;20029;-77
2022/01/10 14:30:44;;;;;;;10.95;4.05;;;;;;;;;;4911395;29;20126;-78
2022/01/10 14:37:41;;;;;;;;;;;;;;;;;;;;;
2022/01/10 14:40:01;;;;;;;13.45;4.63;;;;;;;;;;5048805;28;20083;-79
2022/01/10 14:50:20;;;;;;;13.45;4.57;;;;;;;;;;4933539;29;20382;-79
2022/01/10 14:53:44;;;;;;;10.68;4.40;;;;;;;;;;4996651;28;20033;-75
2022/01/10 15:03:09;;;;;;;12.10;3.90;;;;;;;;;;5015266;28;20545;-78
2022/01/10 15:09:48;;;;;;;;;;;;;;;;;;;;;
2022/01/10 15:13:05;;;;;;;;;;;;;;;;;;;;;
2022/01/10 15:19:25;;;;;;;10.18;4.05;;;;;;;;;;4977486;28;20041;-79
2022/01/10 15:22:19;;;;;;;9.40;4.70;;;;;;;;;;4961433;28;20623;-78
2022/01/10 15:25:33;;;;;;;12.52;4.97;;;;;;;;;;5039620;28;20029;-78
2022/01/10 15:35:51;;;;;;;;;;;;;;;;;;;;;
2022/01/10 15:38:34;;;;;;;17.95;5.38;;;;;;;;;;5058988;28;20108;-79
2022/01/10 15:41:49;;;;;;;14.55;5.22;;;;;;;;;;5040605;28;20037;-78
2022/01/10 15:44:50;;;;;;;10.10;4.40;;;;;;;;;;5041706;28;20033;-78
2022/01/10 15:51:23;;;;;;;13.02;5.25;;;;;;;;;;5005051;28;20037;-80
2022/01/10 15:54:44;;;;;;;11.52;5.35;;;;;;;;;;5057183;28;20025;-78
2022/01/10 16:01:11;;;;;;;10.68;5.13;;;;;;;;;;5029765;28;20056;-79
2022/01/10 16:07:42;;;;;;;12.50;4.90;;;;;;;;;;5024240;28;20025;-78
2022/01/10 16:10:30;;;;;;;;;;;;;;;;;;5040193;28;20092;-78
2022/01/10 16:16:46;;;;;;;;;;;;;;;;;;;;;
2022/01/10 16:19:51;;;;;;;5.50;3.45;;;;;;;;;;5057894;28;20119;-79
2022/01/10 16:22:59;;;;;;;4.55;2.22;;;;;;;;;;5043426;28;20029;-79
2022/01/10 16:31:59;;;;;;;4.75;3.10;;;;;;;;;;5055996;28;20086;-78
2022/01/10 16:35:10;;;;;;;5.25;3.08;;;;;;;;;;5041004;28;20052;-78
2022/01/10 16:38:18;;;;;;;10.32;4.75;;;;;;;;;;4968238;28;20038;-79
2022/01/10 16:41:02;;;;;;;6.00;3.58;;;;;;;;;;5023231;28;20056;-78
2022/01/10 16:44:12;;;;;;;;;;;;;;;;;;5047718;28;20531;-79
2022/01/10 16:50:54;;;;;;;7.43;3.40;;;;;;;;;;5044453;28;20052;-78
2022/01/10 16:54:07;;;;;;;5.97;2.97;;;;;;;;;;5025612;28;20398;-79
2022/01/10 17:01:02;;;;;;;7.20;3.45;;;;;;;;;;4980326;28;20172;-78
2022/01/10 17:04:02;;;;;;;6.32;3.75;;;;;;;;;;5031902;28;20033;-78
2022/01/10 17:07:15;;;;;;;7.05;3.55;;;;;;;;;;5010898;28;20121;-79
2022/01/10 17:10:04;;;;;;;6.05;2.97;;;;;;;;;;4979378;28;20037;-78
2022/01/10 17:13:26;;;;;;;5.95;3.50;;;;;;;;;;5043652;28;20025;-78
2022/01/10 17:20:08;;;;;;;;;;;;;;;;;;;;;
2022/01/10 17:23:16;;;;;;;;;;;;;;;;;;5061325;28;20084;-78
2022/01/10 17:33:05;;;;;;;8.48;4.18;;;;;;;;;;5055841;28;20033;-77
2022/01/10 17:44:03;;;;;;;6.28;4.25;;;;;;;;;;4997010;28;20038;-79
2022/01/10 17:47:25;;;;;;;;;;;;;;;;;;;;;
2022/01/10 17:50:33;;;;;;;7.53;3.95;;;;;;;;;;4972072;28;20115;-78
2022/01/10 17:53:44;;;;;;;8.55;5.00;;;;;;;;;;5039574;28;20111;-78
2022/01/10 18:02:29;;;;;;;;;;;;;;;;;;;;;
2022/01/10 18:05:18;;;;;;;7.90;4.78;;;;;;;;;;4980235;28;20089;-79
2022/01/10 18:08:01;;;;;;;7.45;5.07;;;;;;;;;;5040105;28;20029;-78
2022/01/10 18:10:32;;;;;;;8.07;5.17;;;;;;;;;;5024226;28;20044;-80
2022/01/10 18:12:58;;;;;;;7.47;5.25;;;;;;;;;;5040109;28;20033;-78
2022/01/10 18:15:36;;;;;;;9.93;5.07;;;;;;;;;;5042282;28;20032;-79
2022/01/10 18:18:12;;;;;;;8.90;5.30;;;;;;;;;;5041265;28;20029;-79
2022/01/10 18:20:40;;;;;;;8.95;5.38;;;;;;;;;;5021819;28;20079;-77
2022/01/10 18:23:17;;;;;;;9.73;5.15;;;;;;;;;;5037647;28;20052;-78